Data for 08/18/2008

Time Sea-Level Adjusted Pressure Absolute Pressure Temperature Relative Humidity Dew Point   
(mb) (inHg) (mb) (inHg) (C) (F) (%) (C) (F)
00:05 1018 30.06 848 25.04 22.3 72.2 26 2.1 35.7
00:10 1018 30.06 848 25.04 22.3 72.2 26 1.9 35.3
00:15 1018 30.06 848 25.04 22.4 72.3 26 2.1 35.8
00:20 1018 30.06 848 25.04 22.3 72.1 26 2.1 35.7
00:25 1018 30.06 848 25.04 22.2 72 27 2.3 36.1
00:30 1018 30.06 848 25.04 22.1 71.8 27 2.2 35.9
00:35 1018 30.06 848 25.04 22 71.6 27 2.3 36.1
00:40 1019 30.09 848 25.04 21.9 71.4 27 2.1 35.8
00:45 1018 30.06 848 25.04 21.9 71.4 27 2.2 35.9
00:50 1018 30.06 848 25.04 21.9 71.5 27 2.2 35.9
00:55 1018 30.06 848 25.04 22 71.6 27 2.1 35.9
01:00 1018 30.06 848 25.04 21.9 71.5 27 2.2 35.9
01:05 1018 30.06 848 25.04 21.9 71.4 27 2.3 36.1
01:10 1018 30.06 848 25.04 21.8 71.3 27 2.2 36
01:15 1018 30.06 848 25.04 21.8 71.2 27 2.4 36.3
01:20 1019 30.09 848 25.04 21.6 70.8 28 2.3 36.2
01:25 1019 30.09 848 25.04 21.5 70.7 28 2.3 36.1
01:30 1019 30.09 848 25.04 21.4 70.6 28 2.3 36.1
01:35 1019 30.09 848 25.04 21.3 70.3 28 2.3 36.2
01:40 1019 30.09 848 25.04 21.2 70.1 28 2.4 36.3
01:45 1019 30.09 848 25.04 21.1 70 28 2.1 35.8
01:50 1018 30.06 848 25.04 21.2 70.1 28 2.3 36.1
01:55 1018 30.06 848 25.04 21.1 69.9 28 2.3 36.1
02:00 1019 30.09 848 25.04 21 69.9 28 2.2 35.9
02:05 1019 30.09 848 25.04 21 69.7 29 2.2 36
02:10 1019 30.09 848 25.04 20.9 69.6 29 2.2 36
02:15 1019 30.09 848 25.04 20.7 69.3 29 2.3 36.1
02:20 1019 30.09 848 25.04 20.6 69.1 30 2.4 36.3
02:25 1019 30.09 848 25.04 20.6 69 29 2.2 36
02:30 1018 30.06 848 25.04 20.8 69.4 29 2.1 35.8
02:35 1018 30.06 848 25.04 21 69.8 28 2 35.7
02:40 1018 30.06 848 25.04 21 69.7 28 2.1 35.7
02:45 1018 30.06 848 25.04 21 69.8 28 1.9 35.4
02:50 1018 30.06 848 25.04 21 69.8 28 2 35.6
02:55 1018 30.06 848 25.04 20.9 69.6 29 2.2 35.9
03:00 1018 30.06 848 25.04 20.6 69.2 29 2.1 35.8
03:05 1018 30.06 848 25.04 20.5 68.8 29 2.2 35.9
03:10 1018 30.06 848 25.04 20.2 68.4 30 2.3 36.1
03:15 1018 30.06 848 25.04 20.1 68.2 30 2 35.7
03:20 1018 30.06 848 25.04 20.1 68.2 30 2 35.5
03:25 1018 30.06 848 25.04 20.1 68.2 30 2.1 35.8
03:30 1018 30.06 848 25.04 20 68.1 29 1.8 35.2
03:35 1018 30.06 848 25.04 20.1 68.1 29 1.9 35.4
03:40 1018 30.06 848 25.04 20.1 68.2 29 1.7 35.1
03:45 1018 30.06 848 25.04 20.2 68.3 29 1.8 35.3
03:50 1018 30.06 848 25.04 20 68.1 30 1.9 35.4
03:55 1018 30.06 848 25.04 20 68 30 2 35.6
04:00 1018 30.06 847 25.01 19.8 67.6 30 2.1 35.7
04:05 1018 30.06 847 25.01 19.6 67.2 30 1.9 35.4
04:10 1018 30.06 848 25.04 19.5 67.1 31 2.1 35.8
04:15 1018 30.06 848 25.04 19.2 66.6 31 1.9 35.4
04:20 1018 30.06 848 25.04 19.3 66.7 31 1.8 35.2
04:25 1018 30.06 848 25.04 19.5 67.2 30 1.9 35.4
04:30 1018 30.06 848 25.04 19.5 67.1 31 2 35.6
04:35 1018 30.06 848 25.04 19.4 67 30 1.7 35.1
04:40 1018 30.06 848 25.04 19.5 67.1 30 1.8 35.3
04:45 1018 30.06 848 25.04 19.6 67.2 30 1.7 35.1
04:50 1018 30.06 848 25.04 19.6 67.3 30 1.9 35.5
04:55 1018 30.06 848 25.04 19.6 67.3 29 1.4 34.5
05:00 1018 30.06 848 25.04 19.7 67.5 30 1.6 34.9
05:05 1018 30.06 848 25.04 19.7 67.5 30 1.7 35.1
05:10 1018 30.06 848 25.04 19.6 67.3 30 1.8 35.3
05:15 1018 30.06 848 25.04 19.3 66.7 31 1.9 35.5
05:20 1018 30.06 848 25.04 19 66.2 31 1.6 34.9
05:25 1018 30.06 848 25.04 19.1 66.4 31 1.5 34.8
05:30 1018 30.06 848 25.04 19.3 66.7 31 1.8 35.2
05:35 1018 30.06 847 25.01 19.2 66.5 31 1.8 35.2
05:40 1018 30.06 847 25.01 19.1 66.3 30 1.4 34.6
05:45 1018 30.06 847 25.01 19.3 66.7 30 1.6 34.8
05:50 1018 30.06 847 25.01 19.1 66.4 31 1.8 35.3
05:55 1018 30.06 847 25.01 18.9 66 31 1.6 34.8
06:00 1018 30.06 848 25.04 18.9 66 32 1.8 35.3
06:05 1018 30.06 848 25.04 18.7 65.6 32 1.7 35.1
06:10 1018 30.06 848 25.04 18.6 65.5 32 1.6 35
06:15 1018 30.06 848 25.04 18.6 65.4 32 1.7 35
06:20 1018 30.06 848 25.04 18.4 65.1 33 1.8 35.3
06:25 1018 30.06 848 25.04 18.2 64.7 34 2.1 35.7
06:30 1019 30.09 848 25.04 17.9 64.3 34 1.8 35.3
06:35 1019 30.09 848 25.04 17.8 64 34 1.8 35.3
06:40 1019 30.09 848 25.04 17.6 63.6 35 1.9 35.5
06:45 1019 30.09 848 25.04 17.4 63.3 36 2.3 36.1
06:50 1019 30.09 848 25.04 17.2 62.9 36 2.2 35.9
06:55 1019 30.09 848 25.04 16.9 62.5 37 2.4 36.2
07:00 1019 30.09 848 25.04 16.7 62.1 38 2.4 36.3
07:05 1019 30.09 848 25.04 16.5 61.7 38 2.3 36.1
07:10 1019 30.09 848 25.04 16.5 61.7 38 2.2 35.9
07:15 1019 30.09 848 25.04 16.8 62.2 38 2.5 36.5
07:20 1019 30.09 848 25.04 16.9 62.5 38 2.6 36.6
07:25 1019 30.09 848 25.04 17.1 62.8 37 2.5 36.5
07:30 1019 30.09 848 25.04 17.1 62.9 39 3.1 37.5
07:35 1019 30.09 848 25.04 17.3 63.1 38 2.9 37.1
07:40 1019 30.09 848 25.04 17.4 63.2 36 2.4 36.2
07:45 1019 30.09 848 25.04 17.6 63.7 38 3.3 37.9
07:50 1019 30.09 848 25.04 17.7 63.8 37 2.8 37
07:55 1019 30.09 848 25.04 18 64.5 35 2.6 36.7
08:00 1019 30.09 848 25.04 18.3 64.9 36 3.3 37.9
08:05 1019 30.09 848 25.04 18.5 65.2 37 3.4 38.2
08:10 1019 30.09 848 25.04 18.5 65.4 37 3.7 38.7
08:15 1019 30.09 848 25.04 18.7 65.7 36 3.3 37.9
08:20 1019 30.09 848 25.04 19.1 66.3 36 3.8 38.8
08:25 1019 30.09 848 25.04 19.4 66.9 35 3.5 38.3
08:30 1019 30.09 848 25.04 19.9 67.7 32 2.9 37.2
08:35 1019 30.09 848 25.04 20.3 68.5 32 3.1 37.5
08:40 1019 30.09 848 25.04 20.6 69 32 3.4 38
08:45 1019 30.09 848 25.04 20.8 69.4 31 3.1 37.6
08:50 1019 30.09 848 25.04 21 69.8 32 3.9 39
08:55 1019 30.09 848 25.04 21.4 70.6 31 3.6 38.5
09:00 1019 30.09 848 25.04 21.6 70.8 32 4.2 39.5
09:05 1019 30.09 848 25.04 21.7 71.1 31 3.8 38.9
09:10 1019 30.09 848 25.04 21.9 71.5 31 4.2 39.6
09:15 1019 30.09 848 25.04 22.2 72 35 6.4 43.5
09:20 1019 30.09 848 25.04 21.8 71.2 36 6.1 42.9
09:25 1019 30.09 848 25.04 21.6 70.9 34 5.2 41.3
09:30 1019 30.09 848 25.04 21.1 69.9 35 5.1 41.2
09:35 1019 30.09 848 25.04 20.9 69.5 33 4 39.3
09:40 1019 30.09 848 25.04 21.2 70.2 32 4.1 39.5
09:45 1019 30.09 848 25.04 21.5 70.6 32 4.3 39.8
09:50 1019 30.09 848 25.04 21.7 71 32 4.4 39.9
09:55 1019 30.09 848 25.04 22 71.5 32 4.5 40.1
10:00 1019 30.09 848 25.04 21.9 71.5 30 3.7 38.7
10:05 1019 30.09 848 25.04 22.1 71.7 29 3.5 38.3
10:10 1019 30.09 848 25.04 22.3 72.2 28 3.2 37.8
10:15 1018 30.06 848 25.04 22.7 72.9 30 4.5 40.1
10:20 1018 30.06 848 25.04 23.5 74.2 30 4.9 40.8
10:25 1018 30.06 848 25.04 23.5 74.4 28 4.4 39.9
10:30 1018 30.06 848 25.04 23.9 74.9 28 4.7 40.5
10:35 1018 30.06 848 25.04 24.8 76.7 26 4 39.2
10:40 1018 30.06 848 25.04 25.5 77.8 26 4.8 40.7
10:45 1018 30.06 848 25.04 25.7 78.2 25 4.6 40.3
10:50 1018 30.06 848 25.04 26.1 79 24 4.5 40.1
10:55 1018 30.06 848 25.04 26.1 78.9 26 5.2 41.4
11:00 1018 30.06 847 25.01 26.3 79.4 25 5.1 41.3
11:05 1018 30.06 847 25.01 26.5 79.8 25 5.1 41.2
11:10 1018 30.06 847 25.01 27.1 80.7 24 4.9 40.8
11:15 1018 30.06 847 25.01 27.1 80.7 26 6.2 43.1
11:20 1018 30.06 847 25.01 26.2 79.2 27 5.9 42.5
11:25 1018 30.06 847 25.01 26.3 79.4 26 5.4 41.7
11:30 1018 30.06 847 25.01 27 80.6 26 6.1 43
11:35 1018 30.06 847 25.01 26.5 79.7 27 6 42.8
11:40 1018 30.06 847 25.01 25.8 78.5 26 5.3 41.6
11:45 1018 30.06 847 25.01 26.1 78.9 26 5.6 42.1
11:50 1018 30.06 847 25.01 27.1 80.8 25 5.6 42.1
11:55 1018 30.06 847 25.01 26.6 79.8 27 6.1 42.9
12:00 1018 30.06 847 25.01 27.2 80.9 26 6.1 42.9
12:05 1018 30.06 847 25.01 27.4 81.2 25 5.8 42.5
12:10 1018 30.06 847 25.01 27.3 81.2 24 5.5 41.8
12:15 1018 30.06 847 25.01 27.3 81.2 25 5.9 42.6
12:20 1018 30.06 847 25.01 28.3 82.9 23 5.7 42.2
12:25 1018 30.06 847 25.01 28.7 83.6 24 6.3 43.4
12:30 1018 30.06 847 25.01 27.8 82.1 24 6 42.8
12:35 1018 30.06 847 25.01 28.4 83.1 23 5.6 42.2
12:40 1017 30.03 847 25.01 28.4 83.1 23 5.7 42.2
12:45 1017 30.03 847 25.01 29.2 84.6 22 5.6 42.2
12:50 1017 30.03 847 25.01 29.1 84.4 22 5.5 41.9
12:55 1017 30.03 846 24.98 29.1 84.3 22 5.8 42.4
13:00 1017 30.03 846 24.98 29.2 84.5 22 5.3 41.6
13:05 1017 30.03 846 24.98 28.9 84 21 4.6 40.3
13:10 1017 30.03 846 24.98 29.5 85.1 20 4.8 40.6
13:15 1017 30.03 846 24.98 29.3 84.8 21 4.9 40.9
13:20 1017 30.03 846 24.98 29.2 84.5 18 2.5 36.5
13:25 1017 30.03 846 24.98 29.5 85 17 2.3 36.2
13:30 1017 30.03 846 24.98 29.9 85.7 15 1 33.7
13:35 1017 30.03 846 24.98 30.9 87.5 15 1.8 35.3
13:40 1017 30.03 846 24.98 30.8 87.4 17 3.3 37.9
13:45 1017 30.03 846 24.98 29.9 85.7 15 1.2 34.2
13:50 1017 30.03 846 24.98 30.1 86.1 16 1.4 34.6
13:55 1017 30.03 846 24.98 30.6 87.1 14 0.4 32.8
14:00 1017 30.03 846 24.98 30.5 86.8 13 -0.4 31.3
14:05 1017 30.03 846 24.98 30.6 87 14 0.1 32.1
14:10 1017 30.03 846 24.98 30.8 87.4 14 0.2 32.3
14:15 1017 30.03 846 24.98 30.5 86.9 13 -0.3 31.4
14:20 1017 30.03 846 24.98 31 87.8 13 -0.5 31
14:25 1016 30 846 24.98 32.3 90.1 12 0 32.1
14:30 1016 30 846 24.98 31.9 89.4 14 1.4 34.5
14:35 1016 30 846 24.98 32 89.5 13 0.8 33.5
14:40 1016 30 846 24.98 32.8 91.1 13 1.2 34.2
14:45 1016 30 846 24.98 32.9 91.3 13 0.9 33.6
14:50 1016 30 845 24.95 32 89.5 12 -0.9 30.4
14:55 1016 30 845 24.95 31.8 89.2 13 0.5 32.9
15:00 1016 30 845 24.95 32 89.5 13 0.1 32.2
15:05 1016 30 845 24.95 31.7 89 13 0.2 32.3
15:10 1016 30 845 24.95 32.2 89.9 13 0.4 32.7
15:15 1016 30 845 24.95 32.1 89.9 12 -0 31.9
15:20 1016 30 845 24.95 32.1 89.7 12 -0.6 31
15:25 1016 30 845 24.95 31.8 89.2 11 -1.5 29.4
15:30 1016 30 845 24.95 31.8 89.3 11 -2 28.3
15:35 1016 30 845 24.95 32 89.7 12 -0.4 31.2
15:40 1016 30 845 24.95 32.6 90.7 11 -0.9 30.4
15:45 1016 30 845 24.95 32.9 91.3 12 0.4 32.7
15:50 1015 29.97 845 24.95 33.1 91.5 12 -0.2 31.7
15:55 1015 29.97 845 24.95 32.7 90.9 12 -0.3 31.5
16:00 1015 29.97 845 24.95 32.8 91 12 -0.5 31.1
16:05 1015 29.97 845 24.95 32.2 90 12 -0.4 31.3
16:10 1015 29.97 844 24.92 32.2 89.9 12 0 32
16:15 1015 29.97 844 24.92 32.3 90.1 12 -0.5 31.1
16:20 1015 29.97 844 24.92 32.2 89.9 13 0.3 32.6
16:25 1015 29.97 844 24.92 33.4 92 12 0.7 33.2
16:30 1015 29.97 844 24.92 34.1 93.4 11 0.3 32.5
16:35 1015 29.97 844 24.92 34.4 93.9 12 1 33.7
16:40 1015 29.97 844 24.92 34.2 93.6 11 0.3 32.5
16:45 1015 29.97 844 24.92 32.8 91 13 1 33.7
16:50 1015 29.97 844 24.92 32 89.5 12 -0.3 31.4
16:55 1015 29.97 844 24.92 32.3 90.1 14 1.5 34.7
17:00 1015 29.97 844 24.92 32.2 90 12 -0.8 30.6
17:05 1015 29.97 844 24.92 32.8 91 12 0 32.1
17:10 1015 29.97 844 24.92 33 91.4 12 0.4 32.8
17:15 1015 29.97 844 24.92 33.3 91.9 13 1.2 34.1
17:20 1015 29.97 844 24.92 34.1 93.3 12 1 33.8
17:25 1015 29.97 844 24.92 34.5 94 11 0.4 32.7
17:30 1014 29.94 844 24.92 33.8 92.9 12 1.4 34.6
17:35 1014 29.94 844 24.92 32.7 90.9 12 -0.1 31.9
17:40 1014 29.94 844 24.92 32.6 90.6 12 -0.1 31.9
17:45 1014 29.94 843 24.89 33.4 92.1 12 0.1 32.1
17:50 1014 29.94 843 24.89 33.3 91.9 12 1 33.8
17:55 1014 29.94 843 24.89 32.3 90.1 12 0.1 32.1
18:00 1014 29.94 843 24.89 32.5 90.4 13 0.4 32.7
18:05 1014 29.94 843 24.89 33 91.3 13 1.5 34.6
18:10 1014 29.94 843 24.89 32.7 90.9 13 1.1 34
18:15 1014 29.94 843 24.89 32.2 89.9 13 0.4 32.7
18:20 1014 29.94 843 24.89 31.9 89.4 13 0.2 32.3
18:25 1014 29.94 843 24.89 31.8 89.3 12 -0.2 31.6
18:30 1014 29.94 843 24.89 32 89.6 12 -0.3 31.5
18:35 1014 29.94 843 24.89 32.2 90 13 0.3 32.5
18:40 1014 29.94 843 24.89 32.3 90.1 15 2.5 36.6
18:45 1014 29.94 843 24.89 32.3 90.1 14 2 35.5
18:50 1014 29.94 843 24.89 31.8 89.3 14 1.3 34.4
18:55 1014 29.94 843 24.89 31.3 88.4 13 -0.3 31.4
19:00 1014 29.94 843 24.89 31.2 88.1 13 -0.1 31.8
19:05 1014 29.94 843 24.89 31.2 88.1 14 1.1 33.9
19:10 1014 29.94 843 24.89 31.2 88.1 14 0.6 33.1
19:15 1014 29.94 843 24.89 31.1 88 16 2.3 36.2
19:20 1014 29.94 843 24.89 30.7 87.3 14 0.3 32.5
19:25 1014 29.94 843 24.89 30.5 86.9 18 4.1 39.3
19:30 1014 29.94 843 24.89 30.1 86.1 19 4.3 39.8
19:35 1014 29.94 843 24.89 29.5 85.2 19 3.7 38.6
19:40 1014 29.94 843 24.89 29.4 84.9 18 3 37.4
19:45 1014 29.94 843 24.89 29.2 84.6 19 3.7 38.7
19:50 1014 29.94 843 24.89 29 84.2 19 3.4 38.2
19:55 1014 29.94 843 24.89 28.7 83.7 18 2.6 36.7
20:00 1014 29.94 843 24.89 28.5 83.3 17 1.7 35
20:05 1014 29.94 843 24.89 28.4 83.1 17 1.5 34.7
20:10 1014 29.94 843 24.89 28.3 83 18 2.1 35.8
20:15 1014 29.94 843 24.89 28 82.4 18 2.1 35.8
20:20 1014 29.94 843 24.89 27.7 81.9 19 2.1 35.8
20:25 1014 29.94 843 24.89 27.6 81.7 19 2.3 36.1
20:30 1014 29.94 843 24.89 27.4 81.3 24 5 41.1
20:35 1014 29.94 843 24.89 26.4 79.6 26 5.8 42.4
20:40 1014 29.94 843 24.89 26.3 79.3 21 2.6 36.7
20:45 1014 29.94 843 24.89 26.3 79.3 25 4.8 40.6
20:50 1014 29.94 843 24.89 25.5 77.9 25 4.1 39.4
20:55 1014 29.94 843 24.89 25.3 77.6 21 1.9 35.5
21:00 1014 29.94 843 24.89 25.8 78.5 22 2.9 37.2
21:05 1014 29.94 843 24.89 26 78.8 22 2.9 37.2
21:10 1014 29.94 843 24.89 25.7 78.3 23 3.5 38.4
21:15 1014 29.94 843 24.89 25.2 77.3 22 2.2 36
21:20 1014 29.94 843 24.89 25.1 77.1 24 3.1 37.5
21:25 1014 29.94 843 24.89 24.9 76.8 24 2.9 37.3
21:30 1014 29.94 843 24.89 25.1 77.1 23 2.5 36.5
21:35 1014 29.94 843 24.89 25.1 77.2 22 2.2 36
21:40 1014 29.94 843 24.89 25.3 77.6 23 3.1 37.6
21:45 1014 29.94 843 24.89 25 76.9 23 2.8 37.1
21:50 1014 29.94 843 24.89 24.9 76.9 24 2.9 37.3
21:55 1014 29.94 843 24.89 25 77 23 2.5 36.5
22:00 1014 29.94 843 24.89 24.6 76.2 22 1.8 35.3
22:05 1014 29.94 843 24.89 24.5 76.1 24 2.8 37.1
22:10 1014 29.94 843 24.89 24.6 76.2 24 2.8 37
22:15 1014 29.94 843 24.89 24.5 76.1 23 2.2 35.9
22:20 1014 29.94 843 24.89 24.6 76.3 21 1.3 34.3
22:25 1014 29.94 843 24.89 25.1 77.1 21 1.2 34.2
22:30 1014 29.94 843 24.89 25.2 77.3 21 1.6 34.9
22:35 1014 29.94 843 24.89 24.6 76.2 22 1.7 35.1
22:40 1014 29.94 843 24.89 24.2 75.5 23 2 35.7
22:45 1014 29.94 843 24.89 23.7 74.6 24 2 35.6
22:50 1014 29.94 843 24.89 23.6 74.5 23 1.7 35.1
22:55 1014 29.94 843 24.89 23.5 74.2 23 1.5 34.7
23:00 1014 29.94 843 24.89 23.5 74.3 23 1.6 34.9
23:05 1014 29.94 843 24.89 23.1 73.6 25 2 35.6
23:10 1014 29.94 843 24.89 22.7 72.8 25 2 35.6
23:15 1014 29.94 843 24.89 22.3 72.1 25 1.5 34.7
23:20 1014 29.94 843 24.89 22.2 72 25 1.7 35.1
23:25 1014 29.94 843 24.89 22.2 72 25 1.5 34.7
23:30 1014 29.94 843 24.89 22 71.7 26 2 35.6
23:35 1014 29.94 843 24.89 21.7 71 26 1.7 35.1
23:40 1014 29.94 843 24.89 21.6 70.8 28 2.3 36.1
23:45 1014 29.94 843 24.89 21.5 70.7 26 1.6 34.9
23:50 1014 29.94 843 24.89 21.4 70.5 27 1.9 35.4
23:55 1014 29.94 843 24.89 21.4 70.5 26 1.3 34.4
24:00 1013 29.91 843 24.89 21.8 71.2 26 1.7 35.1